sensor_id;sensor_type;location;lat;lon;timestamp;P1;durP1;ratioP1;P2;durP2;ratioP2
36995;SDS011;22905;50.340;10.776;2023-02-03T00:04:52;54.23;;;21.40;;
36995;SDS011;22905;50.340;10.776;2023-02-03T00:09:52;67.47;;;23.73;;
36995;SDS011;22905;50.340;10.776;2023-02-03T00:14:52;51.88;;;21.50;;
36995;SDS011;22905;50.340;10.776;2023-02-03T00:19:52;63.25;;;20.52;;
36995;SDS011;22905;50.340;10.776;2023-02-03T00:24:53;50.90;;;21.55;;
36995;SDS011;22905;50.340;10.776;2023-02-03T00:29:53;56.25;;;22.02;;
36995;SDS011;22905;50.340;10.776;2023-02-03T00:34:53;49.88;;;18.75;;
36995;SDS011;22905;50.340;10.776;2023-02-03T00:39:54;43.45;;;17.10;;
36995;SDS011;22905;50.340;10.776;2023-02-03T00:44:54;22.70;;;11.53;;
36995;SDS011;22905;50.340;10.776;2023-02-03T00:49:54;30.17;;;9.18;;
36995;SDS011;22905;50.340;10.776;2023-02-03T00:54:55;19.83;;;8.40;;
36995;SDS011;22905;50.340;10.776;2023-02-03T00:59:55;18.40;;;9.15;;
36995;SDS011;22905;50.340;10.776;2023-02-03T01:04:56;15.63;;;6.93;;
36995;SDS011;22905;50.340;10.776;2023-02-03T01:09:57;19.48;;;8.63;;
36995;SDS011;22905;50.340;10.776;2023-02-03T01:14:57;16.67;;;7.05;;
36995;SDS011;22905;50.340;10.776;2023-02-03T01:19:57;21.40;;;7.97;;
36995;SDS011;22905;50.340;10.776;2023-02-03T01:24:58;22.43;;;8.33;;
36995;SDS011;22905;50.340;10.776;2023-02-03T01:29:58;16.90;;;7.40;;
36995;SDS011;22905;50.340;10.776;2023-02-03T01:34:58;15.90;;;8.13;;
36995;SDS011;22905;50.340;10.776;2023-02-03T01:39:59;20.23;;;9.20;;
36995;SDS011;22905;50.340;10.776;2023-02-03T01:44:59;28.75;;;10.57;;
36995;SDS011;22905;50.340;10.776;2023-02-03T01:55:21;22.20;;;7.78;;
36995;SDS011;22905;50.340;10.776;2023-02-03T02:00:24;29.77;;;11.23;;
36995;SDS011;22905;50.340;10.776;2023-02-03T02:05:34;17.55;;;8.85;;
36995;SDS011;22905;50.340;10.776;2023-02-03T02:10:38;21.92;;;8.48;;
36995;SDS011;22905;50.340;10.776;2023-02-03T02:21:31;14.70;;;7.25;;
36995;SDS011;22905;50.340;10.776;2023-02-03T02:42:48;15.63;;;7.63;;
36995;SDS011;22905;50.340;10.776;2023-02-03T02:48:01;16.45;;;7.63;;
36995;SDS011;22905;50.340;10.776;2023-02-03T02:53:06;18.05;;;7.80;;
36995;SDS011;22905;50.340;10.776;2023-02-03T02:58:08;11.93;;;6.55;;
36995;SDS011;22905;50.340;10.776;2023-02-03T03:03:11;16.85;;;6.80;;
36995;SDS011;22905;50.340;10.776;2023-02-03T03:08:15;15.35;;;5.78;;
36995;SDS011;22905;50.340;10.776;2023-02-03T03:13:19;18.83;;;6.68;;
36995;SDS011;22905;50.340;10.776;2023-02-03T03:23:25;8.93;;;5.63;;
36995;SDS011;22905;50.340;10.776;2023-02-03T03:28:29;10.73;;;5.78;;
36995;SDS011;22905;50.340;10.776;2023-02-03T03:33:35;11.00;;;5.03;;
36995;SDS011;22905;50.340;10.776;2023-02-03T03:38:38;12.60;;;5.00;;
36995;SDS011;22905;50.340;10.776;2023-02-03T03:43:40;11.68;;;4.97;;
36995;SDS011;22905;50.340;10.776;2023-02-03T03:48:50;8.68;;;4.60;;
36995;SDS011;22905;50.340;10.776;2023-02-03T03:53:52;9.13;;;4.43;;
36995;SDS011;22905;50.340;10.776;2023-02-03T03:58:53;10.93;;;5.20;;
36995;SDS011;22905;50.340;10.776;2023-02-03T04:03:57;14.73;;;6.40;;
36995;SDS011;22905;50.340;10.776;2023-02-03T04:08:59;10.82;;;5.15;;
36995;SDS011;22905;50.340;10.776;2023-02-03T04:14:01;10.23;;;4.28;;
36995;SDS011;22905;50.340;10.776;2023-02-03T04:19:01;13.35;;;4.55;;
36995;SDS011;22905;50.340;10.776;2023-02-03T04:24:02;16.85;;;5.85;;
36995;SDS011;22905;50.340;10.776;2023-02-03T04:29:02;6.70;;;4.55;;
36995;SDS011;22905;50.340;10.776;2023-02-03T04:34:03;9.23;;;5.03;;
36995;SDS011;22905;50.340;10.776;2023-02-03T04:39:04;11.95;;;4.85;;
36995;SDS011;22905;50.340;10.776;2023-02-03T04:44:04;9.55;;;5.00;;
36995;SDS011;22905;50.340;10.776;2023-02-03T04:49:04;11.45;;;4.10;;
36995;SDS011;22905;50.340;10.776;2023-02-03T04:54:05;11.53;;;4.37;;
36995;SDS011;22905;50.340;10.776;2023-02-03T04:59:05;8.93;;;3.95;;
36995;SDS011;22905;50.340;10.776;2023-02-03T05:04:06;11.70;;;4.45;;
36995;SDS011;22905;50.340;10.776;2023-02-03T05:09:06;4.85;;;3.80;;
36995;SDS011;22905;50.340;10.776;2023-02-03T05:14:06;6.95;;;3.63;;
36995;SDS011;22905;50.340;10.776;2023-02-03T05:19:07;9.33;;;3.80;;
36995;SDS011;22905;50.340;10.776;2023-02-03T05:24:07;6.50;;;3.83;;
36995;SDS011;22905;50.340;10.776;2023-02-03T05:29:08;5.68;;;3.58;;
36995;SDS011;22905;50.340;10.776;2023-02-03T05:34:10;7.30;;;3.35;;
36995;SDS011;22905;50.340;10.776;2023-02-03T05:39:10;6.60;;;3.70;;
36995;SDS011;22905;50.340;10.776;2023-02-03T05:44:11;4.95;;;3.45;;
36995;SDS011;22905;50.340;10.776;2023-02-03T05:54:11;6.23;;;2.70;;
36995;SDS011;22905;50.340;10.776;2023-02-03T05:59:12;6.30;;;3.03;;
36995;SDS011;22905;50.340;10.776;2023-02-03T06:04:12;4.83;;;3.73;;
36995;SDS011;22905;50.340;10.776;2023-02-03T06:09:12;6.00;;;3.20;;
36995;SDS011;22905;50.340;10.776;2023-02-03T06:14:13;7.05;;;3.13;;
36995;SDS011;22905;50.340;10.776;2023-02-03T06:19:13;10.97;;;3.73;;
36995;SDS011;22905;50.340;10.776;2023-02-03T06:24:13;5.83;;;3.40;;
36995;SDS011;22905;50.340;10.776;2023-02-03T06:29:14;4.45;;;2.63;;
36995;SDS011;22905;50.340;10.776;2023-02-03T06:34:14;3.97;;;2.50;;
36995;SDS011;22905;50.340;10.776;2023-02-03T06:39:14;6.53;;;3.08;;
36995;SDS011;22905;50.340;10.776;2023-02-03T06:44:15;9.45;;;3.30;;
36995;SDS011;22905;50.340;10.776;2023-02-03T06:49:15;4.97;;;2.80;;
36995;SDS011;22905;50.340;10.776;2023-02-03T06:54:16;5.82;;;2.75;;
36995;SDS011;22905;50.340;10.776;2023-02-03T06:59:17;6.05;;;2.63;;
36995;SDS011;22905;50.340;10.776;2023-02-03T07:04:17;7.57;;;2.92;;
36995;SDS011;22905;50.340;10.776;2023-02-03T07:09:18;8.00;;;3.35;;
36995;SDS011;22905;50.340;10.776;2023-02-03T07:14:18;11.80;;;5.35;;
36995;SDS011;22905;50.340;10.776;2023-02-03T07:19:18;4.05;;;3.10;;
36995;SDS011;22905;50.340;10.776;2023-02-03T07:24:18;4.60;;;3.30;;
36995;SDS011;22905;50.340;10.776;2023-02-03T07:29:19;6.27;;;3.57;;
36995;SDS011;22905;50.340;10.776;2023-02-03T07:34:19;9.07;;;5.25;;
36995;SDS011;22905;50.340;10.776;2023-02-03T07:39:19;7.73;;;4.60;;
36995;SDS011;22905;50.340;10.776;2023-02-03T07:44:20;9.00;;;4.50;;
36995;SDS011;22905;50.340;10.776;2023-02-03T07:49:20;6.97;;;4.03;;
36995;SDS011;22905;50.340;10.776;2023-02-03T07:54:20;8.38;;;5.10;;
36995;SDS011;22905;50.340;10.776;2023-02-03T07:59:20;6.55;;;2.88;;
36995;SDS011;22905;50.340;10.776;2023-02-03T08:04:21;5.47;;;3.53;;
36995;SDS011;22905;50.340;10.776;2023-02-03T08:09:22;7.20;;;2.78;;
36995;SDS011;22905;50.340;10.776;2023-02-03T08:14:22;4.68;;;3.10;;
36995;SDS011;22905;50.340;10.776;2023-02-03T08:19:22;5.45;;;3.70;;
36995;SDS011;22905;50.340;10.776;2023-02-03T08:24:23;3.55;;;2.45;;
36995;SDS011;22905;50.340;10.776;2023-02-03T08:29:23;4.93;;;2.50;;
36995;SDS011;22905;50.340;10.776;2023-02-03T08:34:24;8.60;;;4.60;;
36995;SDS011;22905;50.340;10.776;2023-02-03T08:39:24;5.70;;;2.60;;
36995;SDS011;22905;50.340;10.776;2023-02-03T08:44:24;5.80;;;2.55;;
36995;SDS011;22905;50.340;10.776;2023-02-03T08:49:25;11.43;;;5.68;;
36995;SDS011;22905;50.340;10.776;2023-02-03T08:54:26;12.00;;;3.35;;
36995;SDS011;22905;50.340;10.776;2023-02-03T08:59:27;7.38;;;3.10;;
36995;SDS011;22905;50.340;10.776;2023-02-03T09:04:28;7.40;;;3.60;;
36995;SDS011;22905;50.340;10.776;2023-02-03T09:09:28;8.68;;;3.60;;
36995;SDS011;22905;50.340;10.776;2023-02-03T09:14:29;4.60;;;2.42;;
36995;SDS011;22905;50.340;10.776;2023-02-03T09:19:32;6.97;;;2.47;;
36995;SDS011;22905;50.340;10.776;2023-02-03T09:24:32;4.07;;;2.17;;
36995;SDS011;22905;50.340;10.776;2023-02-03T09:29:32;3.47;;;2.50;;
36995;SDS011;22905;50.340;10.776;2023-02-03T09:34:32;6.43;;;2.75;;
36995;SDS011;22905;50.340;10.776;2023-02-03T09:39:33;3.77;;;2.60;;
36995;SDS011;22905;50.340;10.776;2023-02-03T09:44:46;6.27;;;2.33;;
36995;SDS011;22905;50.340;10.776;2023-02-03T09:50:22;3.63;;;2.00;;
36995;SDS011;22905;50.340;10.776;2023-02-03T09:55:35;2.92;;;1.92;;
36995;SDS011;22905;50.340;10.776;2023-02-03T10:11:18;5.07;;;3.05;;
36995;SDS011;22905;50.340;10.776;2023-02-03T10:21:53;8.30;;;3.27;;
36995;SDS011;22905;50.340;10.776;2023-02-03T10:26:56;4.22;;;2.10;;
36995;SDS011;22905;50.340;10.776;2023-02-03T10:31:57;5.38;;;3.42;;
36995;SDS011;22905;50.340;10.776;2023-02-03T10:37:00;5.70;;;3.97;;
36995;SDS011;22905;50.340;10.776;2023-02-03T10:42:03;19.90;;;6.55;;
36995;SDS011;22905;50.340;10.776;2023-02-03T10:47:14;7.80;;;4.43;;
36995;SDS011;22905;50.340;10.776;2023-02-03T10:52:27;7.50;;;3.65;;
36995;SDS011;22905;50.340;10.776;2023-02-03T10:57:30;11.07;;;5.13;;
36995;SDS011;22905;50.340;10.776;2023-02-03T11:02:30;7.00;;;3.47;;
36995;SDS011;22905;50.340;10.776;2023-02-03T11:07:31;6.43;;;3.60;;
36995;SDS011;22905;50.340;10.776;2023-02-03T11:12:31;4.75;;;3.15;;
36995;SDS011;22905;50.340;10.776;2023-02-03T11:17:31;6.93;;;3.07;;
36995;SDS011;22905;50.340;10.776;2023-02-03T11:22:35;5.03;;;2.97;;
36995;SDS011;22905;50.340;10.776;2023-02-03T11:32:37;6.97;;;3.60;;
36995;SDS011;22905;50.340;10.776;2023-02-03T11:37:41;7.75;;;3.90;;
36995;SDS011;22905;50.340;10.776;2023-02-03T11:42:45;2.78;;;1.75;;
36995;SDS011;22905;50.340;10.776;2023-02-03T11:48:00;6.07;;;3.08;;
36995;SDS011;22905;50.340;10.776;2023-02-03T11:53:13;3.92;;;1.92;;
36995;SDS011;22905;50.340;10.776;2023-02-03T12:04:14;5.18;;;3.38;;
36995;SDS011;22905;50.340;10.776;2023-02-03T12:30:38;3.33;;;2.17;;
36995;SDS011;22905;50.340;10.776;2023-02-03T12:35:54;3.75;;;1.60;;
36995;SDS011;22905;50.340;10.776;2023-02-03T12:41:00;14.88;;;4.35;;
36995;SDS011;22905;50.340;10.776;2023-02-03T12:46:08;2.53;;;1.70;;
36995;SDS011;22905;50.340;10.776;2023-02-03T12:51:12;7.70;;;3.80;;
36995;SDS011;22905;50.340;10.776;2023-02-03T12:56:15;8.18;;;3.67;;
36995;SDS011;22905;50.340;10.776;2023-02-03T13:11:53;2.47;;;1.25;;
36995;SDS011;22905;50.340;10.776;2023-02-03T13:17:00;1.08;;;0.98;;
36995;SDS011;22905;50.340;10.776;2023-02-03T13:22:12;3.83;;;2.00;;
36995;SDS011;22905;50.340;10.776;2023-02-03T13:27:25;3.75;;;2.20;;
36995;SDS011;22905;50.340;10.776;2023-02-03T13:32:40;5.47;;;1.98;;
36995;SDS011;22905;50.340;10.776;2023-02-03T13:38:22;7.47;;;3.05;;
36995;SDS011;22905;50.340;10.776;2023-02-03T13:43:26;2.83;;;1.90;;
36995;SDS011;22905;50.340;10.776;2023-02-03T13:48:28;4.45;;;1.70;;
36995;SDS011;22905;50.340;10.776;2023-02-03T13:53:32;8.05;;;3.13;;
36995;SDS011;22905;50.340;10.776;2023-02-03T13:58:36;5.03;;;2.85;;
36995;SDS011;22905;50.340;10.776;2023-02-03T14:03:41;12.60;;;6.20;;
36995;SDS011;22905;50.340;10.776;2023-02-03T14:08:46;13.93;;;7.30;;
36995;SDS011;22905;50.340;10.776;2023-02-03T14:13:48;7.50;;;5.47;;
36995;SDS011;22905;50.340;10.776;2023-02-03T14:18:50;5.18;;;4.03;;
36995;SDS011;22905;50.340;10.776;2023-02-03T14:23:52;4.97;;;3.70;;
36995;SDS011;22905;50.340;10.776;2023-02-03T14:28:55;4.88;;;3.75;;
36995;SDS011;22905;50.340;10.776;2023-02-03T14:33:57;2.50;;;2.30;;
36995;SDS011;22905;50.340;10.776;2023-02-03T14:55:27;4.65;;;3.10;;
36995;SDS011;22905;50.340;10.776;2023-02-03T15:00:30;4.38;;;3.30;;
36995;SDS011;22905;50.340;10.776;2023-02-03T15:05:46;2.78;;;1.92;;
36995;SDS011;22905;50.340;10.776;2023-02-03T15:10:47;3.60;;;1.92;;
36995;SDS011;22905;50.340;10.776;2023-02-03T15:15:47;2.63;;;2.30;;
36995;SDS011;22905;50.340;10.776;2023-02-03T15:20:51;3.50;;;2.22;;
36995;SDS011;22905;50.340;10.776;2023-02-03T15:25:53;5.55;;;2.88;;
36995;SDS011;22905;50.340;10.776;2023-02-03T15:31:06;1.10;;;1.10;;
36995;SDS011;22905;50.340;10.776;2023-02-03T15:36:20;1.88;;;1.63;;
36995;SDS011;22905;50.340;10.776;2023-02-03T15:41:23;2.85;;;1.85;;
36995;SDS011;22905;50.340;10.776;2023-02-03T15:46:31;3.03;;;2.38;;
36995;SDS011;22905;50.340;10.776;2023-02-03T15:51:40;3.75;;;2.22;;
36995;SDS011;22905;50.340;10.776;2023-02-03T15:56:47;4.72;;;3.15;;
36995;SDS011;22905;50.340;10.776;2023-02-03T16:01:54;2.63;;;2.42;;
36995;SDS011;22905;50.340;10.776;2023-02-03T16:06:55;3.22;;;2.28;;
36995;SDS011;22905;50.340;10.776;2023-02-03T16:12:13;3.85;;;2.55;;
36995;SDS011;22905;50.340;10.776;2023-02-03T16:17:25;4.53;;;2.70;;
36995;SDS011;22905;50.340;10.776;2023-02-03T16:22:40;7.53;;;3.45;;
36995;SDS011;22905;50.340;10.776;2023-02-03T16:27:54;6.40;;;3.10;;
36995;SDS011;22905;50.340;10.776;2023-02-03T16:33:15;8.32;;;2.70;;
36995;SDS011;22905;50.340;10.776;2023-02-03T16:38:34;4.10;;;1.73;;
36995;SDS011;22905;50.340;10.776;2023-02-03T16:43:53;7.70;;;1.88;;
36995;SDS011;22905;50.340;10.776;2023-02-03T16:49:12;7.70;;;1.73;;
36995;SDS011;22905;50.340;10.776;2023-02-03T16:54:31;10.05;;;3.70;;
36995;SDS011;22905;50.340;10.776;2023-02-03T16:59:31;11.10;;;3.60;;
36995;SDS011;22905;50.340;10.776;2023-02-03T17:04:31;6.03;;;2.30;;
36995;SDS011;22905;50.340;10.776;2023-02-03T17:09:32;9.00;;;2.40;;
36995;SDS011;22905;50.340;10.776;2023-02-03T17:14:35;10.77;;;4.07;;
36995;SDS011;22905;50.340;10.776;2023-02-03T17:19:36;13.73;;;3.83;;
36995;SDS011;22905;50.340;10.776;2023-02-03T17:24:36;13.98;;;2.78;;
36995;SDS011;22905;50.340;10.776;2023-02-03T17:29:36;19.27;;;3.80;;
36995;SDS011;22905;50.340;10.776;2023-02-03T17:34:36;13.05;;;3.40;;
36995;SDS011;22905;50.340;10.776;2023-02-03T17:39:37;18.00;;;7.07;;
36995;SDS011;22905;50.340;10.776;2023-02-03T17:44:37;14.90;;;4.45;;
36995;SDS011;22905;50.340;10.776;2023-02-03T17:49:37;13.32;;;4.47;;
36995;SDS011;22905;50.340;10.776;2023-02-03T17:54:38;17.55;;;4.10;;
36995;SDS011;22905;50.340;10.776;2023-02-03T17:59:38;16.23;;;3.40;;
36995;SDS011;22905;50.340;10.776;2023-02-03T18:04:38;16.70;;;5.33;;
36995;SDS011;22905;50.340;10.776;2023-02-03T18:09:39;15.97;;;3.47;;
36995;SDS011;22905;50.340;10.776;2023-02-03T18:14:39;15.27;;;3.50;;
36995;SDS011;22905;50.340;10.776;2023-02-03T18:19:40;10.90;;;3.20;;
36995;SDS011;22905;50.340;10.776;2023-02-03T18:24:40;15.13;;;3.75;;
36995;SDS011;22905;50.340;10.776;2023-02-03T18:29:44;15.88;;;3.33;;
36995;SDS011;22905;50.340;10.776;2023-02-03T18:34:45;13.30;;;2.85;;
36995;SDS011;22905;50.340;10.776;2023-02-03T18:39:46;12.20;;;4.45;;
36995;SDS011;22905;50.340;10.776;2023-02-03T18:44:46;15.60;;;4.13;;
36995;SDS011;22905;50.340;10.776;2023-02-03T18:49:46;16.70;;;3.77;;
36995;SDS011;22905;50.340;10.776;2023-02-03T18:54:46;14.25;;;3.95;;
36995;SDS011;22905;50.340;10.776;2023-02-03T18:59:47;13.20;;;2.60;;
36995;SDS011;22905;50.340;10.776;2023-02-03T19:04:48;16.30;;;3.35;;
36995;SDS011;22905;50.340;10.776;2023-02-03T19:09:48;10.70;;;4.33;;
36995;SDS011;22905;50.340;10.776;2023-02-03T19:14:48;11.93;;;2.87;;
36995;SDS011;22905;50.340;10.776;2023-02-03T19:19:49;12.82;;;3.50;;
36995;SDS011;22905;50.340;10.776;2023-02-03T19:24:49;17.40;;;3.47;;
36995;SDS011;22905;50.340;10.776;2023-02-03T19:29:49;16.73;;;2.55;;
36995;SDS011;22905;50.340;10.776;2023-02-03T19:34:50;11.00;;;3.43;;
36995;SDS011;22905;50.340;10.776;2023-02-03T19:39:50;21.90;;;2.92;;
36995;SDS011;22905;50.340;10.776;2023-02-03T19:44:50;18.95;;;5.15;;
36995;SDS011;22905;50.340;10.776;2023-02-03T19:49:51;24.45;;;3.53;;
36995;SDS011;22905;50.340;10.776;2023-02-03T19:54:51;15.70;;;3.53;;
36995;SDS011;22905;50.340;10.776;2023-02-03T19:59:54;15.80;;;2.72;;
36995;SDS011;22905;50.340;10.776;2023-02-03T20:04:55;19.73;;;6.10;;
36995;SDS011;22905;50.340;10.776;2023-02-03T20:09:56;15.38;;;2.88;;
36995;SDS011;22905;50.340;10.776;2023-02-03T20:14:56;11.82;;;2.63;;
36995;SDS011;22905;50.340;10.776;2023-02-03T20:19:59;17.10;;;4.28;;
36995;SDS011;22905;50.340;10.776;2023-02-03T20:24:59;14.23;;;2.78;;
36995;SDS011;22905;50.340;10.776;2023-02-03T20:30:00;18.10;;;2.60;;
36995;SDS011;22905;50.340;10.776;2023-02-03T20:35:00;14.90;;;2.20;;
36995;SDS011;22905;50.340;10.776;2023-02-03T20:40:05;16.98;;;3.33;;
36995;SDS011;22905;50.340;10.776;2023-02-03T20:45:15;17.67;;;2.28;;
36995;SDS011;22905;50.340;10.776;2023-02-03T20:50:20;11.85;;;2.88;;
36995;SDS011;22905;50.340;10.776;2023-02-03T20:55:22;10.48;;;2.10;;
36995;SDS011;22905;50.340;10.776;2023-02-03T21:00:23;11.60;;;2.40;;
36995;SDS011;22905;50.340;10.776;2023-02-03T21:05:25;11.93;;;2.78;;
36995;SDS011;22905;50.340;10.776;2023-02-03T21:10:34;13.43;;;2.38;;
36995;SDS011;22905;50.340;10.776;2023-02-03T21:15:35;9.45;;;3.50;;
36995;SDS011;22905;50.340;10.776;2023-02-03T21:20:36;19.90;;;3.23;;
36995;SDS011;22905;50.340;10.776;2023-02-03T21:25:36;8.43;;;2.78;;
36995;SDS011;22905;50.340;10.776;2023-02-03T21:30:37;21.83;;;5.43;;
36995;SDS011;22905;50.340;10.776;2023-02-03T21:35:37;16.42;;;3.97;;
36995;SDS011;22905;50.340;10.776;2023-02-03T21:40:37;15.73;;;2.60;;
36995;SDS011;22905;50.340;10.776;2023-02-03T21:45:41;10.50;;;2.50;;
36995;SDS011;22905;50.340;10.776;2023-02-03T21:50:41;21.75;;;3.67;;
36995;SDS011;22905;50.340;10.776;2023-02-03T21:55:41;13.30;;;3.60;;
36995;SDS011;22905;50.340;10.776;2023-02-03T22:00:42;15.43;;;3.42;;
36995;SDS011;22905;50.340;10.776;2023-02-03T22:05:46;15.43;;;2.92;;
36995;SDS011;22905;50.340;10.776;2023-02-03T22:10:47;12.23;;;2.80;;
36995;SDS011;22905;50.340;10.776;2023-02-03T22:15:48;16.30;;;4.22;;
36995;SDS011;22905;50.340;10.776;2023-02-03T22:20:49;11.27;;;2.80;;
36995;SDS011;22905;50.340;10.776;2023-02-03T22:25:49;20.00;;;3.33;;
36995;SDS011;22905;50.340;10.776;2023-02-03T22:30:50;11.07;;;2.80;;
36995;SDS011;22905;50.340;10.776;2023-02-03T22:35:50;21.13;;;3.53;;
36995;SDS011;22905;50.340;10.776;2023-02-03T22:40:51;26.80;;;4.45;;
36995;SDS011;22905;50.340;10.776;2023-02-03T22:45:52;20.45;;;3.30;;
36995;SDS011;22905;50.340;10.776;2023-02-03T22:50:54;19.65;;;2.90;;
36995;SDS011;22905;50.340;10.776;2023-02-03T22:55:54;20.50;;;4.97;;
36995;SDS011;22905;50.340;10.776;2023-02-03T23:00:55;21.10;;;3.33;;
36995;SDS011;22905;50.340;10.776;2023-02-03T23:05:55;19.58;;;4.03;;
36995;SDS011;22905;50.340;10.776;2023-02-03T23:10:56;15.00;;;3.50;;
36995;SDS011;22905;50.340;10.776;2023-02-03T23:15:56;21.87;;;5.03;;
36995;SDS011;22905;50.340;10.776;2023-02-03T23:20:56;16.33;;;3.30;;
36995;SDS011;22905;50.340;10.776;2023-02-03T23:25:56;12.73;;;2.87;;
36995;SDS011;22905;50.340;10.776;2023-02-03T23:30:57;15.57;;;2.85;;
36995;SDS011;22905;50.340;10.776;2023-02-03T23:35:57;23.27;;;3.20;;
36995;SDS011;22905;50.340;10.776;2023-02-03T23:40:57;14.35;;;3.80;;
36995;SDS011;22905;50.340;10.776;2023-02-03T23:45:58;11.33;;;3.13;;
36995;SDS011;22905;50.340;10.776;2023-02-03T23:50:58;14.35;;;3.70;;
36995;SDS011;22905;50.340;10.776;2023-02-03T23:55:58;12.32;;;2.70;;
